sensor_id;sensor_type;location;lat;lon;timestamp;pressure;altitude;pressure_sealevel;temperature;humidity
16094;BME280;8151;47.824;12.092;2023-04-27T00:00:07;96327.38;;;8.69;68.22
16094;BME280;8151;47.824;12.092;2023-04-27T00:02:39;96325.38;;;8.71;68.28
16094;BME280;8151;47.824;12.092;2023-04-27T00:05:08;96312.19;;;8.71;68.36
16094;BME280;8151;47.824;12.092;2023-04-27T00:07:37;96309.41;;;8.73;68.06
16094;BME280;8151;47.824;12.092;2023-04-27T00:10:07;96311.06;;;8.74;68.56
16094;BME280;8151;47.824;12.092;2023-04-27T00:12:46;96315.50;;;8.73;68.27
16094;BME280;8151;47.824;12.092;2023-04-27T00:15:14;96312.56;;;8.76;68.50
16094;BME280;8151;47.824;12.092;2023-04-27T00:17:45;96310.38;;;8.72;68.20
16094;BME280;8151;47.824;12.092;2023-04-27T00:20:14;96304.28;;;8.71;68.06
16094;BME280;8151;47.824;12.092;2023-04-27T00:22:44;96311.16;;;8.64;68.66
16094;BME280;8151;47.824;12.092;2023-04-27T00:25:20;96310.66;;;8.60;68.40
16094;BME280;8151;47.824;12.092;2023-04-27T00:27:49;96306.22;;;8.61;68.72
16094;BME280;8151;47.824;12.092;2023-04-27T00:30:18;96304.03;;;8.56;68.79
16094;BME280;8151;47.824;12.092;2023-04-27T00:32:48;96302.56;;;8.54;68.84
16094;BME280;8151;47.824;12.092;2023-04-27T00:35:17;96294.00;;;8.60;68.69
16094;BME280;8151;47.824;12.092;2023-04-27T00:37:49;96300.09;;;8.60;68.52
16094;BME280;8151;47.824;12.092;2023-04-27T00:40:24;96288.75;;;8.60;69.01
16094;BME280;8151;47.824;12.092;2023-04-27T00:42:53;96294.00;;;8.60;68.84
16094;BME280;8151;47.824;12.092;2023-04-27T00:45:21;96290.22;;;8.62;69.06
16094;BME280;8151;47.824;12.092;2023-04-27T00:47:51;96291.88;;;8.63;68.87
16094;BME280;8151;47.824;12.092;2023-04-27T00:50:26;96287.94;;;8.67;68.89
16094;BME280;8151;47.824;12.092;2023-04-27T00:52:56;96288.44;;;8.63;68.71
16094;BME280;8151;47.824;12.092;2023-04-27T00:55:24;96303.41;;;8.62;69.12
16094;BME280;8151;47.824;12.092;2023-04-27T00:57:53;96288.63;;;8.70;68.79
16094;BME280;8151;47.824;12.092;2023-04-27T01:00:21;96292.28;;;8.77;68.50
16094;BME280;8151;47.824;12.092;2023-04-27T01:03:00;96289.00;;;8.83;68.69
16094;BME280;8151;47.824;12.092;2023-04-27T01:05:30;96294.78;;;8.86;68.63
16094;BME280;8151;47.824;12.092;2023-04-27T01:07:59;96286.38;;;8.91;68.81
16094;BME280;8151;47.824;12.092;2023-04-27T01:10:28;96294.97;;;8.93;68.54
16094;BME280;8151;47.824;12.092;2023-04-27T01:12:57;96288.56;;;8.96;69.34
16094;BME280;8151;47.824;12.092;2023-04-27T01:15:25;96290.88;;;8.99;68.87
16094;BME280;8151;47.824;12.092;2023-04-27T01:17:57;96296.81;;;9.01;69.04
16094;BME280;8151;47.824;12.092;2023-04-27T01:20:28;96295.00;;;9.01;69.23
16094;BME280;8151;47.824;12.092;2023-04-27T01:22:58;96297.81;;;9.00;69.31
16094;BME280;8151;47.824;12.092;2023-04-27T01:25:30;96291.53;;;9.01;68.96
16094;BME280;8151;47.824;12.092;2023-04-27T01:27:58;96292.84;;;9.05;68.86
16094;BME280;8151;47.824;12.092;2023-04-27T01:30:27;96294.03;;;9.02;69.15
16094;BME280;8151;47.824;12.092;2023-04-27T01:32:56;96293.34;;;9.00;68.75
16094;BME280;8151;47.824;12.092;2023-04-27T01:35:24;96289.72;;;9.01;68.78
16094;BME280;8151;47.824;12.092;2023-04-27T01:37:55;96295.31;;;8.98;69.11
16094;BME280;8151;47.824;12.092;2023-04-27T01:40:24;96299.94;;;8.96;69.45
16094;BME280;8151;47.824;12.092;2023-04-27T01:43:03;96295.31;;;8.90;69.66
16094;BME280;8151;47.824;12.092;2023-04-27T01:45:32;96299.06;;;8.87;69.47
16094;BME280;8151;47.824;12.092;2023-04-27T01:48:01;96298.91;;;8.89;69.76
16094;BME280;8151;47.824;12.092;2023-04-27T01:50:29;96296.91;;;8.83;69.87
16094;BME280;8151;47.824;12.092;2023-04-27T01:52:58;96310.22;;;8.73;70.25
16094;BME280;8151;47.824;12.092;2023-04-27T01:55:26;96305.25;;;8.70;70.42
16094;BME280;8151;47.824;12.092;2023-04-27T01:57:54;96320.22;;;8.61;70.29
16094;BME280;8151;47.824;12.092;2023-04-27T02:00:24;96314.06;;;8.53;70.86
16094;BME280;8151;47.824;12.092;2023-04-27T02:02:53;96315.91;;;8.52;70.97
16094;BME280;8151;47.824;12.092;2023-04-27T02:05:23;96316.72;;;8.53;70.87
16094;BME280;8151;47.824;12.092;2023-04-27T02:07:52;96324.81;;;8.51;70.82
16094;BME280;8151;47.824;12.092;2023-04-27T02:10:20;96319.34;;;8.53;70.70
16094;BME280;8151;47.824;12.092;2023-04-27T02:12:49;96327.94;;;8.55;70.51
16094;BME280;8151;47.824;12.092;2023-04-27T02:15:19;96324.31;;;8.56;70.58
16094;BME280;8151;47.824;12.092;2023-04-27T02:17:49;96323.13;;;8.50;70.67
16094;BME280;8151;47.824;12.092;2023-04-27T02:20:19;96326.28;;;8.54;70.74
16094;BME280;8151;47.824;12.092;2023-04-27T02:22:47;96337.50;;;8.56;70.66
16094;BME280;8151;47.824;12.092;2023-04-27T02:25:15;96335.84;;;8.55;71.08
16094;BME280;8151;47.824;12.092;2023-04-27T02:27:46;96332.22;;;8.56;71.05
16094;BME280;8151;47.824;12.092;2023-04-27T02:30:15;96335.69;;;8.56;70.80
16094;BME280;8151;47.824;12.092;2023-04-27T02:32:45;96336.84;;;8.54;71.09
16094;BME280;8151;47.824;12.092;2023-04-27T02:35:14;96338.47;;;8.55;70.93
16094;BME280;8151;47.824;12.092;2023-04-27T02:37:43;96335.03;;;8.54;71.15
16094;BME280;8151;47.824;12.092;2023-04-27T02:40:11;96344.38;;;8.48;71.04
16094;BME280;8151;47.824;12.092;2023-04-27T02:42:40;96347.09;;;8.39;71.47
16094;BME280;8151;47.824;12.092;2023-04-27T02:45:09;96335.34;;;8.33;71.51
16094;BME280;8151;47.824;12.092;2023-04-27T02:47:37;96345.22;;;8.31;71.62
16094;BME280;8151;47.824;12.092;2023-04-27T02:50:06;96340.09;;;8.29;71.59
16094;BME280;8151;47.824;12.092;2023-04-27T02:52:36;96344.78;;;8.36;71.75
16094;BME280;8151;47.824;12.092;2023-04-27T02:55:05;96352.22;;;8.40;71.46
16094;BME280;8151;47.824;12.092;2023-04-27T02:57:34;96339.59;;;8.44;71.43
16094;BME280;8151;47.824;12.092;2023-04-27T03:00:03;96337.63;;;8.46;71.60
16094;BME280;8151;47.824;12.092;2023-04-27T03:02:33;96347.00;;;8.48;71.53
16094;BME280;8151;47.824;12.092;2023-04-27T03:05:01;96348.84;;;8.48;71.28
16094;BME280;8151;47.824;12.092;2023-04-27T03:07:32;96346.03;;;8.50;71.27
16094;BME280;8151;47.824;12.092;2023-04-27T03:10:01;96346.41;;;8.37;71.33
16094;BME280;8151;47.824;12.092;2023-04-27T03:12:30;96348.22;;;8.36;71.70
16094;BME280;8151;47.824;12.092;2023-04-27T03:14:58;96345.06;;;8.33;71.99
16094;BME280;8151;47.824;12.092;2023-04-27T03:17:27;96346.88;;;8.32;72.06
16094;BME280;8151;47.824;12.092;2023-04-27T03:19:55;96344.50;;;8.21;71.89
16094;BME280;8151;47.824;12.092;2023-04-27T03:22:30;96342.34;;;8.16;71.96
16094;BME280;8151;47.824;12.092;2023-04-27T03:24:59;96344.66;;;8.19;72.07
16094;BME280;8151;47.824;12.092;2023-04-27T03:27:29;96343.50;;;8.22;72.00
16094;BME280;8151;47.824;12.092;2023-04-27T03:29:57;96346.13;;;8.22;71.75
16094;BME280;8151;47.824;12.092;2023-04-27T03:32:25;96349.91;;;8.19;71.81
16094;BME280;8151;47.824;12.092;2023-04-27T03:34:54;96358.16;;;8.16;72.04
16094;BME280;8151;47.824;12.092;2023-04-27T03:37:22;96353.03;;;8.15;72.25
16094;BME280;8151;47.824;12.092;2023-04-27T03:39:51;96361.09;;;8.13;71.99
16094;BME280;8151;47.824;12.092;2023-04-27T03:42:19;96359.94;;;8.16;72.06
16094;BME280;8151;47.824;12.092;2023-04-27T03:44:49;96355.34;;;8.18;71.88
16094;BME280;8151;47.824;12.092;2023-04-27T03:47:19;96357.00;;;8.19;72.28
16094;BME280;8151;47.824;12.092;2023-04-27T03:49:47;96357.81;;;8.19;72.13
16094;BME280;8151;47.824;12.092;2023-04-27T03:52:16;96358.06;;;8.26;71.92
16094;BME280;8151;47.824;12.092;2023-04-27T03:54:46;96361.72;;;8.33;71.60
16094;BME280;8151;47.824;12.092;2023-04-27T03:57:15;96365.28;;;8.42;71.45
16094;BME280;8151;47.824;12.092;2023-04-27T03:59:43;96367.09;;;8.41;71.70
16094;BME280;8151;47.824;12.092;2023-04-27T04:02:13;96378.38;;;8.34;71.58
16094;BME280;8151;47.824;12.092;2023-04-27T04:04:42;96381.78;;;8.26;71.83
16094;BME280;8151;47.824;12.092;2023-04-27T04:07:10;96378.47;;;8.24;71.87
16094;BME280;8151;47.824;12.092;2023-04-27T04:09:38;96391.47;;;8.25;71.85
16094;BME280;8151;47.824;12.092;2023-04-27T04:12:09;96383.66;;;8.34;72.21
16094;BME280;8151;47.824;12.092;2023-04-27T04:14:37;96390.81;;;8.41;71.70
16094;BME280;8151;47.824;12.092;2023-04-27T04:17:08;96382.28;;;8.47;71.49
16094;BME280;8151;47.824;12.092;2023-04-27T04:19:38;96382.81;;;8.51;71.90
16094;BME280;8151;47.824;12.092;2023-04-27T04:22:07;96394.19;;;8.52;71.52
16094;BME280;8151;47.824;12.092;2023-04-27T04:24:35;96395.00;;;8.52;71.69
16094;BME280;8151;47.824;12.092;2023-04-27T04:27:06;96391.53;;;8.52;71.66
16094;BME280;8151;47.824;12.092;2023-04-27T04:29:34;96396.50;;;8.55;71.91
16094;BME280;8151;47.824;12.092;2023-04-27T04:32:03;96400.13;;;8.54;71.91
16094;BME280;8151;47.824;12.092;2023-04-27T04:34:33;96400.78;;;8.56;72.11
16094;BME280;8151;47.824;12.092;2023-04-27T04:37:03;96417.28;;;8.58;72.08
16094;BME280;8151;47.824;12.092;2023-04-27T04:39:31;96417.28;;;8.58;72.23
16094;BME280;8151;47.824;12.092;2023-04-27T04:41:59;96420.06;;;8.56;71.87
16094;BME280;8151;47.824;12.092;2023-04-27T04:44:30;96422.88;;;8.55;72.05
16094;BME280;8151;47.824;12.092;2023-04-27T04:46:58;96422.56;;;8.58;72.20
16094;BME280;8151;47.824;12.092;2023-04-27T04:49:26;96426.69;;;8.60;71.83
16094;BME280;8151;47.824;12.092;2023-04-27T04:51:55;96425.59;;;8.63;72.48
16094;BME280;8151;47.824;12.092;2023-04-27T04:54:25;96429.84;;;8.64;72.41
16094;BME280;8151;47.824;12.092;2023-04-27T04:56:53;96437.63;;;8.65;72.52
16094;BME280;8151;47.824;12.092;2023-04-27T04:59:22;96434.50;;;8.70;72.14
16094;BME280;8151;47.824;12.092;2023-04-27T05:01:50;96434.22;;;8.73;72.13
16094;BME280;8151;47.824;12.092;2023-04-27T05:04:22;96435.19;;;8.72;72.29
16094;BME280;8151;47.824;12.092;2023-04-27T05:06:51;96436.03;;;8.73;72.63
16094;BME280;8151;47.824;12.092;2023-04-27T05:09:20;96431.28;;;8.76;72.50
16094;BME280;8151;47.824;12.092;2023-04-27T05:11:52;96431.78;;;8.80;72.19
16094;BME280;8151;47.824;12.092;2023-04-27T05:14:21;96436.59;;;8.84;72.29
16094;BME280;8151;47.824;12.092;2023-04-27T05:16:49;96425.72;;;8.87;72.06
16094;BME280;8151;47.824;12.092;2023-04-27T05:19:18;96426.38;;;8.90;72.16
16094;BME280;8151;47.824;12.092;2023-04-27T05:21:47;96433.03;;;8.94;72.08
16094;BME280;8151;47.824;12.092;2023-04-27T05:24:15;96435.81;;;8.92;71.85
16094;BME280;8151;47.824;12.092;2023-04-27T05:26:44;96440.44;;;8.90;71.92
16094;BME280;8151;47.824;12.092;2023-04-27T05:29:14;96446.38;;;8.92;72.32
16094;BME280;8151;47.824;12.092;2023-04-27T05:31:42;96444.72;;;8.91;72.78
16094;BME280;8151;47.824;12.092;2023-04-27T05:34:11;96446.03;;;8.95;72.04
16094;BME280;8151;47.824;12.092;2023-04-27T05:36:39;96442.75;;;8.93;72.48
16094;BME280;8151;47.824;12.092;2023-04-27T05:39:08;96445.22;;;8.95;72.19
16094;BME280;8151;47.824;12.092;2023-04-27T05:41:36;96446.53;;;8.91;72.19
16094;BME280;8151;47.824;12.092;2023-04-27T05:44:05;96445.53;;;8.92;72.78
16094;BME280;8151;47.824;12.092;2023-04-27T05:46:35;96442.59;;;8.95;72.37
16094;BME280;8151;47.824;12.092;2023-04-27T05:49:05;96443.63;;;9.02;72.33
16094;BME280;8151;47.824;12.092;2023-04-27T05:51:33;96435.06;;;9.08;72.53
16094;BME280;8151;47.824;12.092;2023-04-27T05:54:02;96431.81;;;9.14;72.15
16094;BME280;8151;47.824;12.092;2023-04-27T05:56:30;96436.44;;;9.20;71.97
16094;BME280;8151;47.824;12.092;2023-04-27T05:58:58;96441.28;;;9.25;71.79
16094;BME280;8151;47.824;12.092;2023-04-27T06:01:38;96443.44;;;9.30;72.13
16094;BME280;8151;47.824;12.092;2023-04-27T06:04:06;96442.13;;;9.34;71.92
16094;BME280;8151;47.824;12.092;2023-04-27T06:06:35;96451.19;;;9.31;72.30
16094;BME280;8151;47.824;12.092;2023-04-27T06:09:04;96459.94;;;9.32;71.51
16094;BME280;8151;47.824;12.092;2023-04-27T06:11:32;96467.72;;;9.33;72.03
16094;BME280;8151;47.824;12.092;2023-04-27T06:14:01;96460.31;;;9.37;71.78
16094;BME280;8151;47.824;12.092;2023-04-27T06:16:29;96466.09;;;9.40;72.23
16094;BME280;8151;47.824;12.092;2023-04-27T06:18:59;96466.59;;;9.44;72.02
16094;BME280;8151;47.824;12.092;2023-04-27T06:21:31;96463.63;;;9.47;71.94
16094;BME280;8151;47.824;12.092;2023-04-27T06:23:59;96464.66;;;9.46;71.58
16094;BME280;8151;47.824;12.092;2023-04-27T06:26:28;96456.22;;;9.51;72.00
16094;BME280;8151;47.824;12.092;2023-04-27T06:28:57;96456.25;;;9.59;71.72
16094;BME280;8151;47.824;12.092;2023-04-27T06:31:25;96460.06;;;9.64;71.87
16094;BME280;8151;47.824;12.092;2023-04-27T06:33:54;96459.44;;;9.71;71.10
16094;BME280;8151;47.824;12.092;2023-04-27T06:36:24;96460.59;;;9.76;70.96
16094;BME280;8151;47.824;12.092;2023-04-27T06:38:52;96464.28;;;9.83;71.46
16094;BME280;8151;47.824;12.092;2023-04-27T06:41:24;96453.19;;;9.88;70.95
16094;BME280;8151;47.824;12.092;2023-04-27T06:43:53;96465.75;;;9.94;71.03
16094;BME280;8151;47.824;12.092;2023-04-27T06:46:24;96461.66;;;10.00;70.77
16094;BME280;8151;47.824;12.092;2023-04-27T06:48:53;96469.13;;;10.04;71.16
16094;BME280;8151;47.824;12.092;2023-04-27T06:51:22;96468.78;;;10.08;71.31
16094;BME280;8151;47.824;12.092;2023-04-27T06:53:51;96468.47;;;10.11;70.55
16094;BME280;8151;47.824;12.092;2023-04-27T06:56:21;96465.16;;;10.17;70.76
16094;BME280;8151;47.824;12.092;2023-04-27T06:58:49;96471.47;;;10.24;70.62
16094;BME280;8151;47.824;12.092;2023-04-27T07:01:18;96471.97;;;10.28;71.14
16094;BME280;8151;47.824;12.092;2023-04-27T07:03:46;96474.09;;;10.24;70.86
16094;BME280;8151;47.824;12.092;2023-04-27T07:06:15;96478.88;;;10.29;70.95
16094;BME280;8151;47.824;12.092;2023-04-27T07:08:44;96469.19;;;10.37;71.20
16094;BME280;8151;47.824;12.092;2023-04-27T07:11:13;96470.16;;;10.44;70.58
16094;BME280;8151;47.824;12.092;2023-04-27T07:13:42;96468.53;;;10.52;70.45
16094;BME280;8151;47.824;12.092;2023-04-27T07:16:10;96469.38;;;10.60;70.30
16094;BME280;8151;47.824;12.092;2023-04-27T07:18:39;96473.78;;;10.68;70.90
16094;BME280;8151;47.824;12.092;2023-04-27T07:21:09;96472.66;;;10.71;70.35
16094;BME280;8151;47.824;12.092;2023-04-27T07:23:38;96467.00;;;10.74;71.00
16094;BME280;8151;47.824;12.092;2023-04-27T07:26:07;96462.56;;;10.82;70.59
16094;BME280;8151;47.824;12.092;2023-04-27T07:28:38;96461.06;;;10.88;70.99
16094;BME280;8151;47.824;12.092;2023-04-27T07:31:06;96462.06;;;10.95;70.74
16094;BME280;8151;47.824;12.092;2023-04-27T07:33:35;96466.69;;;11.01;70.68
16094;BME280;8151;47.824;12.092;2023-04-27T07:36:04;96468.63;;;11.08;71.06
16094;BME280;8151;47.824;12.092;2023-04-27T07:38:33;96468.13;;;11.12;70.63
16094;BME280;8151;47.824;12.092;2023-04-27T07:41:01;96472.75;;;11.18;70.64
16094;BME280;8151;47.824;12.092;2023-04-27T07:43:30;96475.06;;;11.21;70.43
16094;BME280;8151;47.824;12.092;2023-04-27T07:46:00;96472.09;;;11.25;70.39
16094;BME280;8151;47.824;12.092;2023-04-27T07:48:29;96477.03;;;11.28;70.54
16094;BME280;8151;47.824;12.092;2023-04-27T07:50:58;96478.34;;;11.32;70.17
16094;BME280;8151;47.824;12.092;2023-04-27T07:53:27;96475.84;;;11.38;70.26
16094;BME280;8151;47.824;12.092;2023-04-27T07:55:55;96477.97;;;11.43;69.97
16094;BME280;8151;47.824;12.092;2023-04-27T07:58:23;96474.63;;;11.49;69.85
16094;BME280;8151;47.824;12.092;2023-04-27T08:00:52;96470.66;;;11.53;70.05
16094;BME280;8151;47.824;12.092;2023-04-27T08:03:23;96475.63;;;11.56;70.00
16094;BME280;8151;47.824;12.092;2023-04-27T08:05:52;96471.78;;;11.59;70.26
16094;BME280;8151;47.824;12.092;2023-04-27T08:08:22;96474.59;;;11.66;69.83
16094;BME280;8151;47.824;12.092;2023-04-27T08:10:55;96477.19;;;11.74;69.68
16094;BME280;8151;47.824;12.092;2023-04-27T08:13:24;96479.31;;;11.78;69.82
16094;BME280;8151;47.824;12.092;2023-04-27T08:15:52;96480.28;;;11.86;69.79
16094;BME280;8151;47.824;12.092;2023-04-27T08:18:25;96483.56;;;11.96;69.93
16094;BME280;8151;47.824;12.092;2023-04-27T08:20:54;96485.34;;;12.04;69.76
16094;BME280;8151;47.824;12.092;2023-04-27T08:23:25;96484.00;;;12.08;69.70
16094;BME280;8151;47.824;12.092;2023-04-27T08:25:54;96484.97;;;12.15;69.45
16094;BME280;8151;47.824;12.092;2023-04-27T08:28:22;96484.91;;;12.23;69.55
16094;BME280;8151;47.824;12.092;2023-04-27T08:30:51;96485.22;;;12.28;69.58
16094;BME280;8151;47.824;12.092;2023-04-27T08:33:19;96481.84;;;12.34;69.32
16094;BME280;8151;47.824;12.092;2023-04-27T08:35:49;96480.97;;;12.42;69.25
16094;BME280;8151;47.824;12.092;2023-04-27T08:38:17;96483.13;;;12.47;69.13
16094;BME280;8151;47.824;12.092;2023-04-27T08:40:46;96483.41;;;12.52;69.04
16094;BME280;8151;47.824;12.092;2023-04-27T08:43:15;96471.41;;;12.56;68.89
16094;BME280;8151;47.824;12.092;2023-04-27T08:45:47;96477.09;;;12.53;68.81
16094;BME280;8151;47.824;12.092;2023-04-27T08:48:16;96478.38;;;12.57;68.76
16094;BME280;8151;47.824;12.092;2023-04-27T08:50:50;96481.69;;;12.59;68.91
16094;BME280;8151;47.824;12.092;2023-04-27T08:53:21;96479.59;;;12.69;68.93
16094;BME280;8151;47.824;12.092;2023-04-27T08:55:50;96480.66;;;12.83;68.77
16094;BME280;8151;47.824;12.092;2023-04-27T08:58:18;96475.56;;;12.96;68.51
16094;BME280;8151;47.824;12.092;2023-04-27T09:00:47;96474.31;;;13.07;68.41
16094;BME280;8151;47.824;12.092;2023-04-27T09:03:21;96475.66;;;13.18;68.16
16094;BME280;8151;47.824;12.092;2023-04-27T09:05:52;96477.06;;;13.29;68.10
16094;BME280;8151;47.824;12.092;2023-04-27T09:08:42;96470.88;;;13.36;67.86
16094;BME280;8151;47.824;12.092;2023-04-27T09:11:11;96475.91;;;13.31;67.84
16094;BME280;8151;47.824;12.092;2023-04-27T09:13:40;96468.00;;;13.23;67.99
16094;BME280;8151;47.824;12.092;2023-04-27T09:16:11;96467.53;;;13.19;68.51
16094;BME280;8151;47.824;12.092;2023-04-27T09:18:42;96470.81;;;13.22;68.32
16094;BME280;8151;47.824;12.092;2023-04-27T09:21:21;96466.88;;;13.17;67.78
16094;BME280;8151;47.824;12.092;2023-04-27T09:23:53;96466.16;;;13.24;67.86
16094;BME280;8151;47.824;12.092;2023-04-27T09:26:24;96466.28;;;13.30;67.39
16094;BME280;8151;47.824;12.092;2023-04-27T09:28:54;96460.88;;;13.38;67.18
16094;BME280;8151;47.824;12.092;2023-04-27T09:31:30;96454.28;;;13.49;66.86
16094;BME280;8151;47.824;12.092;2023-04-27T09:33:58;96457.84;;;13.56;66.79
16094;BME280;8151;47.824;12.092;2023-04-27T09:36:29;96459.75;;;13.63;66.30
16094;BME280;8151;47.824;12.092;2023-04-27T09:39:01;96452.53;;;13.71;66.24
16094;BME280;8151;47.824;12.092;2023-04-27T09:41:31;96460.22;;;13.81;66.04
16094;BME280;8151;47.824;12.092;2023-04-27T09:44:00;96453.78;;;13.90;65.86
16094;BME280;8151;47.824;12.092;2023-04-27T09:46:32;96451.56;;;13.94;65.88
16094;BME280;8151;47.824;12.092;2023-04-27T09:49:03;96440.53;;;13.97;65.87
16094;BME280;8151;47.824;12.092;2023-04-27T09:51:36;96441.00;;;14.01;65.29
16094;BME280;8151;47.824;12.092;2023-04-27T09:54:06;96438.78;;;14.04;65.31
16094;BME280;8151;47.824;12.092;2023-04-27T09:56:41;96437.56;;;14.07;65.18
16094;BME280;8151;47.824;12.092;2023-04-27T09:59:28;96432.53;;;14.12;65.27
16094;BME280;8151;47.824;12.092;2023-04-27T10:02:02;96434.88;;;14.22;65.20
16094;BME280;8151;47.824;12.092;2023-04-27T10:05:21;96435.69;;;14.22;64.72
16094;BME280;8151;47.824;12.092;2023-04-27T10:07:54;96429.59;;;14.28;65.17
16094;BME280;8151;47.824;12.092;2023-04-27T10:10:23;96423.50;;;14.34;65.03
16094;BME280;8151;47.824;12.092;2023-04-27T10:12:56;96414.53;;;14.35;64.72
16094;BME280;8151;47.824;12.092;2023-04-27T10:15:26;96416.88;;;14.45;64.99
16094;BME280;8151;47.824;12.092;2023-04-27T10:17:55;96413.94;;;14.62;64.87
16094;BME280;8151;47.824;12.092;2023-04-27T10:20:28;96413.66;;;14.71;64.26
16094;BME280;8151;47.824;12.092;2023-04-27T10:22:59;96414.50;;;14.79;64.08
16094;BME280;8151;47.824;12.092;2023-04-27T10:25:29;96416.78;;;14.82;64.11
16094;BME280;8151;47.824;12.092;2023-04-27T10:28:04;96407.78;;;14.83;63.84
16094;BME280;8151;47.824;12.092;2023-04-27T10:30:36;96414.22;;;14.95;63.81
16094;BME280;8151;47.824;12.092;2023-04-27T10:33:07;96407.34;;;15.07;63.56
16094;BME280;8151;47.824;12.092;2023-04-27T10:35:37;96408.56;;;15.05;63.50
16094;BME280;8151;47.824;12.092;2023-04-27T10:38:08;96402.16;;;14.99;63.20
16094;BME280;8151;47.824;12.092;2023-04-27T10:40:45;96398.47;;;15.00;62.98
16094;BME280;8151;47.824;12.092;2023-04-27T10:43:14;96408.31;;;15.00;62.78
16094;BME280;8151;47.824;12.092;2023-04-27T10:45:44;96411.78;;;15.00;62.69
16094;BME280;8151;47.824;12.092;2023-04-27T10:48:12;96406.91;;;15.04;62.41
16094;BME280;8151;47.824;12.092;2023-04-27T10:50:42;96395.03;;;15.06;62.01
16094;BME280;8151;47.824;12.092;2023-04-27T10:53:15;96391.97;;;15.09;61.73
16094;BME280;8151;47.824;12.092;2023-04-27T10:55:43;96396.69;;;15.14;61.80
16094;BME280;8151;47.824;12.092;2023-04-27T10:58:13;96395.72;;;15.22;61.40
16094;BME280;8151;47.824;12.092;2023-04-27T11:00:41;96398.88;;;15.32;61.07
16094;BME280;8151;47.824;12.092;2023-04-27T11:03:13;96396.28;;;15.45;61.04
16094;BME280;8151;47.824;12.092;2023-04-27T11:05:44;96400.00;;;15.58;60.40
16094;BME280;8151;47.824;12.092;2023-04-27T11:08:16;96397.16;;;15.66;60.20
16094;BME280;8151;47.824;12.092;2023-04-27T11:10:46;96398.81;;;15.67;60.05
16094;BME280;8151;47.824;12.092;2023-04-27T11:13:18;96396.59;;;15.70;59.89
16094;BME280;8151;47.824;12.092;2023-04-27T11:15:48;96397.59;;;15.69;59.71
16094;BME280;8151;47.824;12.092;2023-04-27T11:18:18;96402.91;;;15.63;59.48
16094;BME280;8151;47.824;12.092;2023-04-27T11:20:49;96400.63;;;15.60;59.22
16094;BME280;8151;47.824;12.092;2023-04-27T11:23:24;96399.81;;;15.59;58.73
16094;BME280;8151;47.824;12.092;2023-04-27T11:25:54;96404.75;;;15.62;59.06
16094;BME280;8151;47.824;12.092;2023-04-27T11:28:23;96400.44;;;15.61;58.94
16094;BME280;8151;47.824;12.092;2023-04-27T11:30:56;96403.72;;;15.63;58.66
16094;BME280;8151;47.824;12.092;2023-04-27T11:33:26;96398.22;;;15.65;58.54
16094;BME280;8151;47.824;12.092;2023-04-27T11:35:55;96399.63;;;15.61;58.59
16094;BME280;8151;47.824;12.092;2023-04-27T11:38:32;96410.28;;;15.61;58.03
16094;BME280;8151;47.824;12.092;2023-04-27T11:41:02;96403.63;;;15.78;58.26
16094;BME280;8151;47.824;12.092;2023-04-27T11:43:32;96403.44;;;15.86;57.96
16094;BME280;8151;47.824;12.092;2023-04-27T11:46:04;96401.38;;;15.88;57.97
16094;BME280;8151;47.824;12.092;2023-04-27T11:48:35;96403.69;;;15.98;57.85
16094;BME280;8151;47.824;12.092;2023-04-27T11:51:04;96404.09;;;16.02;57.81
16094;BME280;8151;47.824;12.092;2023-04-27T11:53:36;96404.28;;;16.00;57.51
16094;BME280;8151;47.824;12.092;2023-04-27T11:56:07;96410.44;;;16.01;57.69
16094;BME280;8151;47.824;12.092;2023-04-27T11:58:38;96415.97;;;15.99;57.64
16094;BME280;8151;47.824;12.092;2023-04-27T12:01:08;96411.88;;;15.97;57.63
16094;BME280;8151;47.824;12.092;2023-04-27T12:03:38;96422.53;;;15.90;57.74
16094;BME280;8151;47.824;12.092;2023-04-27T12:06:07;96420.88;;;15.82;57.66
16094;BME280;8151;47.824;12.092;2023-04-27T12:08:57;96419.19;;;15.74;58.18
16094;BME280;8151;47.824;12.092;2023-04-27T12:11:26;96422.22;;;15.65;57.83
16094;BME280;8151;47.824;12.092;2023-04-27T12:13:55;96422.78;;;15.60;58.19
16094;BME280;8151;47.824;12.092;2023-04-27T12:16:26;96420.13;;;15.60;57.64
16094;BME280;8151;47.824;12.092;2023-04-27T12:18:55;96429.16;;;15.59;57.61
16094;BME280;8151;47.824;12.092;2023-04-27T12:21:23;96429.34;;;15.58;57.81
16094;BME280;8151;47.824;12.092;2023-04-27T12:23:53;96423.19;;;15.57;57.61
16094;BME280;8151;47.824;12.092;2023-04-27T12:26:27;96419.66;;;15.50;57.50
16094;BME280;8151;47.824;12.092;2023-04-27T12:28:58;96413.53;;;15.56;57.51
16094;BME280;8151;47.824;12.092;2023-04-27T12:31:27;96424.47;;;15.68;57.16
16094;BME280;8151;47.824;12.092;2023-04-27T12:33:55;96427.63;;;15.78;57.19
16094;BME280;8151;47.824;12.092;2023-04-27T12:36:24;96420.47;;;15.85;56.95
16094;BME280;8151;47.824;12.092;2023-04-27T12:38:57;96416.59;;;15.94;56.74
16094;BME280;8151;47.824;12.092;2023-04-27T12:41:28;96424.22;;;15.98;56.49
16094;BME280;8151;47.824;12.092;2023-04-27T12:43:56;96431.59;;;16.02;56.64
16094;BME280;8151;47.824;12.092;2023-04-27T12:46:29;96431.00;;;16.07;56.60
16094;BME280;8151;47.824;12.092;2023-04-27T12:48:58;96421.16;;;16.14;56.65
16094;BME280;8151;47.824;12.092;2023-04-27T12:51:28;96422.41;;;16.18;56.45
16094;BME280;8151;47.824;12.092;2023-04-27T12:53:56;96423.88;;;16.21;56.69
16094;BME280;8151;47.824;12.092;2023-04-27T12:56:28;96421.38;;;16.19;56.49
16094;BME280;8151;47.824;12.092;2023-04-27T12:58:57;96419.31;;;16.14;56.11
16094;BME280;8151;47.824;12.092;2023-04-27T13:01:27;96417.47;;;16.15;55.92
16094;BME280;8151;47.824;12.092;2023-04-27T13:03:58;96415.59;;;16.09;56.01
16094;BME280;8151;47.824;12.092;2023-04-27T13:06:28;96423.59;;;16.02;55.79
16094;BME280;8151;47.824;12.092;2023-04-27T13:08:58;96417.41;;;15.95;55.76
16094;BME280;8151;47.824;12.092;2023-04-27T13:11:28;96424.78;;;15.93;55.57
16094;BME280;8151;47.824;12.092;2023-04-27T13:13:56;96422.31;;;15.85;55.74
16094;BME280;8151;47.824;12.092;2023-04-27T13:16:27;96424.16;;;15.84;55.65
16094;BME280;8151;47.824;12.092;2023-04-27T13:18:55;96417.59;;;15.87;55.66